MMHO/HMO METAR and TAF weather

Enter ICAO airport designator
Station Type Date Time Source
MMHO METAR 2019/12/09 21:40 UTC NOAA

MMHO 092140Z 26010KT 10SM BKN030 23/14 A2991 RMK 8/500 ISOL AC HZY


Station Type Date Time Source
MMHO Decoded METAR 2019/12/09 21:40 UTC NOAA

Hermosillo, Son., Mexico (MMHO) 29-04N 110-57W
Dec 09, 2019 - 04:40 PM EST / 2019.12.09 2140 UTC
Wind: from the W (260 degrees) at 12 MPH (10 KT):0
Visibility: 10 mile(s):0
Sky conditions: mostly cloudy
Temperature: 73 F (23 C)
Dew Point: 57 F (14 C)
Relative Humidity: 56%
Pressure (altimeter): 29.91 in. Hg (1012 hPa)
ob: MMHO 092140Z 26010KT 10SM BKN030 23/14 A2991 RMK 8/500 ISOL AC HZY
cycle: 21

Station Type Date Time Source
MMHO TAF 2019/12/09 18:58 UTC NOAA

TAF COR MMHO 091758Z 0918/1018 08006KT P6SM SCT040 SCT080 BKN220
FM092100 27015KT P6SM SCT080 BKN220
FM100200 32010KT P6SM BKN220
BECMG 1005/1006 34005KT
FM101200 00000KT P6SM SCT220

Example: see airport list